sensor_id;sensor_type;location;lat;lon;timestamp;P1;durP1;ratioP1;P2;durP2;ratioP2
46216;SDS011;47258;59.424;13.482;2022-07-23T06:59:30;0.68;;;0.68;;
46216;SDS011;47258;59.424;13.482;2022-07-23T07:01:58;0.93;;;0.90;;
46216;SDS011;47258;59.424;13.482;2022-07-23T07:04:25;2.80;;;0.88;;
46216;SDS011;47258;59.424;13.482;2022-07-23T07:06:52;0.80;;;0.50;;
46216;SDS011;47258;59.424;13.482;2022-07-23T07:09:19;0.75;;;0.75;;
46216;SDS011;47258;59.424;13.482;2022-07-23T07:11:46;1.80;;;0.73;;
46216;SDS011;47258;59.424;13.482;2022-07-23T07:14:13;3.05;;;0.65;;
46216;SDS011;47258;59.424;13.482;2022-07-23T07:16:41;0.50;;;0.50;;
46216;SDS011;47258;59.424;13.482;2022-07-23T07:19:08;0.47;;;0.47;;
46216;SDS011;47258;59.424;13.482;2022-07-23T07:21:35;0.75;;;0.70;;
46216;SDS011;47258;59.424;13.482;2022-07-23T07:24:02;2.17;;;0.50;;
46216;SDS011;47258;59.424;13.482;2022-07-23T07:26:29;0.52;;;0.40;;
46216;SDS011;47258;59.424;13.482;2022-07-23T07:28:56;0.70;;;0.70;;
46216;SDS011;47258;59.424;13.482;2022-07-23T07:31:23;0.93;;;0.90;;
46216;SDS011;47258;59.424;13.482;2022-07-23T07:33:52;0.77;;;0.50;;
46216;SDS011;47258;59.424;13.482;2022-07-23T07:36:21;0.50;;;0.50;;
46216;SDS011;47258;59.424;13.482;2022-07-23T07:38:49;0.55;;;0.55;;
46216;SDS011;47258;59.424;13.482;2022-07-23T07:41:16;1.50;;;0.55;;
46216;SDS011;47258;59.424;13.482;2022-07-23T07:43:47;1.75;;;0.70;;
46216;SDS011;47258;59.424;13.482;2022-07-23T07:46:14;4.10;;;0.50;;
46216;SDS011;47258;59.424;13.482;2022-07-23T07:48:41;0.30;;;0.30;;
46216;SDS011;47258;59.424;13.482;2022-07-23T07:51:10;1.58;;;0.43;;
46216;SDS011;47258;59.424;13.482;2022-07-23T07:53:37;0.60;;;0.60;;
46216;SDS011;47258;59.424;13.482;2022-07-23T07:56:04;0.40;;;0.40;;
46216;SDS011;47258;59.424;13.482;2022-07-23T07:58:31;0.40;;;0.40;;
46216;SDS011;47258;59.424;13.482;2022-07-23T08:00:58;0.50;;;0.50;;
46216;SDS011;47258;59.424;13.482;2022-07-23T08:03:27;4.45;;;0.50;;
46216;SDS011;47258;59.424;13.482;2022-07-23T08:05:54;0.85;;;0.47;;
46216;SDS011;47258;59.424;13.482;2022-07-23T08:08:22;0.40;;;0.40;;
46216;SDS011;47258;59.424;13.482;2022-07-23T08:10:50;1.05;;;0.70;;
46216;SDS011;47258;59.424;13.482;2022-07-23T08:13:17;3.05;;;0.57;;
46216;SDS011;47258;59.424;13.482;2022-07-23T08:15:44;0.30;;;0.30;;
46216;SDS011;47258;59.424;13.482;2022-07-23T08:18:11;4.68;;;0.75;;
46216;SDS011;47258;59.424;13.482;2022-07-23T08:20:38;3.72;;;0.55;;
46216;SDS011;47258;59.424;13.482;2022-07-23T08:23:05;0.45;;;0.45;;
46216;SDS011;47258;59.424;13.482;2022-07-23T08:25:35;0.65;;;0.32;;
46216;SDS011;47258;59.424;13.482;2022-07-23T08:28:04;0.40;;;0.40;;
46216;SDS011;47258;59.424;13.482;2022-07-23T08:30:33;2.83;;;0.43;;
46216;SDS011;47258;59.424;13.482;2022-07-23T08:33:02;0.55;;;0.30;;
46216;SDS011;47258;59.424;13.482;2022-07-23T08:35:32;0.28;;;0.28;;
46216;SDS011;47258;59.424;13.482;2022-07-23T08:38:00;5.05;;;0.52;;
46216;SDS011;47258;59.424;13.482;2022-07-23T08:42:58;0.77;;;0.30;;
46216;SDS011;47258;59.424;13.482;2022-07-23T08:45:26;1.02;;;0.82;;
46216;SDS011;47258;59.424;13.482;2022-07-23T08:47:54;2.40;;;0.60;;
46216;SDS011;47258;59.424;13.482;2022-07-23T08:50:23;3.65;;;0.50;;
46216;SDS011;47258;59.424;13.482;2022-07-23T08:52:51;0.75;;;0.30;;
46216;SDS011;47258;59.424;13.482;2022-07-23T08:55:21;0.73;;;0.43;;
46216;SDS011;47258;59.424;13.482;2022-07-23T08:57:49;0.98;;;0.90;;
46216;SDS011;47258;59.424;13.482;2022-07-23T09:00:19;2.40;;;0.30;;
46216;SDS011;47258;59.424;13.482;2022-07-23T09:02:47;2.22;;;0.38;;
46216;SDS011;47258;59.424;13.482;2022-07-23T09:05:16;2.63;;;0.45;;
46216;SDS011;47258;59.424;13.482;2022-07-23T09:10:42;0.30;;;0.30;;
46216;SDS011;47258;59.424;13.482;2022-07-23T09:13:22;1.00;;;0.30;;
46216;SDS011;47258;59.424;13.482;2022-07-23T09:15:55;2.25;;;0.55;;
46216;SDS011;47258;59.424;13.482;2022-07-23T09:21:19;0.30;;;0.20;;
46216;SDS011;47258;59.424;13.482;2022-07-23T09:23:50;3.35;;;0.40;;
46216;SDS011;47258;59.424;13.482;2022-07-23T09:26:21;0.20;;;0.20;;
46216;SDS011;47258;59.424;13.482;2022-07-23T09:28:50;0.40;;;0.28;;
46216;SDS011;47258;59.424;13.482;2022-07-23T09:31:23;3.92;;;1.65;;
46216;SDS011;47258;59.424;13.482;2022-07-23T09:33:51;0.20;;;0.20;;
46216;SDS011;47258;59.424;13.482;2022-07-23T09:36:32;1.95;;;0.57;;
46216;SDS011;47258;59.424;13.482;2022-07-23T09:38:59;3.95;;;0.35;;
46216;SDS011;47258;59.424;13.482;2022-07-23T09:41:27;2.08;;;0.40;;
46216;SDS011;47258;59.424;13.482;2022-07-23T09:44:06;0.35;;;0.20;;
46216;SDS011;47258;59.424;13.482;2022-07-23T09:46:39;0.20;;;0.20;;
46216;SDS011;47258;59.424;13.482;2022-07-23T09:49:13;0.27;;;0.27;;
46216;SDS011;47258;59.424;13.482;2022-07-23T09:51:46;1.10;;;0.30;;
46216;SDS011;47258;59.424;13.482;2022-07-23T09:54:22;0.32;;;0.22;;
46216;SDS011;47258;59.424;13.482;2022-07-23T09:56:56;4.47;;;0.32;;
46216;SDS011;47258;59.424;13.482;2022-07-23T09:59:24;0.30;;;0.30;;
46216;SDS011;47258;59.424;13.482;2022-07-23T10:01:54;0.40;;;0.40;;
46216;SDS011;47258;59.424;13.482;2022-07-23T10:04:24;0.30;;;0.30;;
46216;SDS011;47258;59.424;13.482;2022-07-23T10:06:52;0.80;;;0.30;;
46216;SDS011;47258;59.424;13.482;2022-07-23T10:09:24;0.40;;;0.40;;
46216;SDS011;47258;59.424;13.482;2022-07-23T10:11:55;0.30;;;0.30;;
46216;SDS011;47258;59.424;13.482;2022-07-23T10:14:30;0.93;;;0.50;;
46216;SDS011;47258;59.424;13.482;2022-07-23T10:17:01;2.08;;;0.25;;
46216;SDS011;47258;59.424;13.482;2022-07-23T10:19:29;0.73;;;0.45;;
46216;SDS011;47258;59.424;13.482;2022-07-23T10:21:58;2.30;;;0.40;;
46216;SDS011;47258;59.424;13.482;2022-07-23T10:24:36;0.30;;;0.30;;
46216;SDS011;47258;59.424;13.482;2022-07-23T10:27:19;0.93;;;0.43;;
46216;SDS011;47258;59.424;13.482;2022-07-23T10:30:12;2.05;;;0.32;;
46216;SDS011;47258;59.424;13.482;2022-07-23T10:32:49;0.32;;;0.32;;
46216;SDS011;47258;59.424;13.482;2022-07-23T10:35:25;2.35;;;0.47;;
46216;SDS011;47258;59.424;13.482;2022-07-23T10:37:56;0.70;;;0.30;;
46216;SDS011;47258;59.424;13.482;2022-07-23T10:40:33;0.30;;;0.30;;
46216;SDS011;47258;59.424;13.482;2022-07-23T10:43:00;0.20;;;0.20;;
46216;SDS011;47258;59.424;13.482;2022-07-23T10:45:29;0.38;;;0.25;;
46216;SDS011;47258;59.424;13.482;2022-07-23T10:48:10;0.85;;;0.30;;
46216;SDS011;47258;59.424;13.482;2022-07-23T10:50:40;0.20;;;0.20;;
46216;SDS011;47258;59.424;13.482;2022-07-23T10:53:14;1.35;;;0.30;;
46216;SDS011;47258;59.424;13.482;2022-07-23T10:55:44;1.45;;;0.30;;
46216;SDS011;47258;59.424;13.482;2022-07-23T11:00:44;0.20;;;0.20;;
46216;SDS011;47258;59.424;13.482;2022-07-23T11:06:06;0.93;;;0.40;;
46216;SDS011;47258;59.424;13.482;2022-07-23T11:08:33;0.75;;;0.30;;
46216;SDS011;47258;59.424;13.482;2022-07-23T11:11:10;0.57;;;0.57;;
46216;SDS011;47258;59.424;13.482;2022-07-23T11:13:44;0.20;;;0.20;;
46216;SDS011;47258;59.424;13.482;2022-07-23T11:16:14;0.17;;;0.17;;
46216;SDS011;47258;59.424;13.482;2022-07-23T11:19:02;0.20;;;0.20;;
46216;SDS011;47258;59.424;13.482;2022-07-23T11:21:42;0.98;;;0.20;;
46216;SDS011;47258;59.424;13.482;2022-07-23T11:24:11;3.00;;;0.90;;
46216;SDS011;47258;59.424;13.482;2022-07-23T11:26:43;2.63;;;0.32;;
46216;SDS011;47258;59.424;13.482;2022-07-23T11:32:18;0.45;;;0.45;;
46216;SDS011;47258;59.424;13.482;2022-07-23T11:34:51;5.85;;;0.60;;
46216;SDS011;47258;59.424;13.482;2022-07-23T11:37:29;0.60;;;0.35;;
46216;SDS011;47258;59.424;13.482;2022-07-23T11:40:04;2.38;;;0.50;;
46216;SDS011;47258;59.424;13.482;2022-07-23T11:42:34;0.40;;;0.40;;
46216;SDS011;47258;59.424;13.482;2022-07-23T11:45:04;0.50;;;0.28;;
46216;SDS011;47258;59.424;13.482;2022-07-23T11:47:32;0.40;;;0.40;;
46216;SDS011;47258;59.424;13.482;2022-07-23T11:50:02;0.73;;;0.30;;
46216;SDS011;47258;59.424;13.482;2022-07-23T11:52:31;0.75;;;0.50;;
46216;SDS011;47258;59.424;13.482;2022-07-23T11:54:59;0.80;;;0.25;;
46216;SDS011;47258;59.424;13.482;2022-07-23T11:57:28;0.47;;;0.20;;
46216;SDS011;47258;59.424;13.482;2022-07-23T11:59:56;0.30;;;0.30;;
46216;SDS011;47258;59.424;13.482;2022-07-23T12:02:26;0.40;;;0.40;;
46216;SDS011;47258;59.424;13.482;2022-07-23T12:04:53;0.22;;;0.22;;
46216;SDS011;47258;59.424;13.482;2022-07-23T12:10:10;0.43;;;0.25;;
46216;SDS011;47258;59.424;13.482;2022-07-23T12:12:39;0.40;;;0.20;;
46216;SDS011;47258;59.424;13.482;2022-07-23T12:15:07;2.80;;;0.20;;
46216;SDS011;47258;59.424;13.482;2022-07-23T12:17:35;0.30;;;0.30;;
46216;SDS011;47258;59.424;13.482;2022-07-23T12:20:04;0.30;;;0.20;;
46216;SDS011;47258;59.424;13.482;2022-07-23T12:22:33;0.20;;;0.20;;
46216;SDS011;47258;59.424;13.482;2022-07-23T12:27:31;0.10;;;0.10;;
46216;SDS011;47258;59.424;13.482;2022-07-23T12:29:58;0.43;;;0.43;;
46216;SDS011;47258;59.424;13.482;2022-07-23T12:32:42;1.85;;;0.30;;
46216;SDS011;47258;59.424;13.482;2022-07-23T12:35:10;0.05;;;0.05;;
46216;SDS011;47258;59.424;13.482;2022-07-23T12:37:37;0.20;;;0.20;;
46216;SDS011;47258;59.424;13.482;2022-07-23T12:40:23;0.28;;;0.28;;
46216;SDS011;47258;59.424;13.482;2022-07-23T12:42:53;0.93;;;0.40;;
46216;SDS011;47258;59.424;13.482;2022-07-23T12:47:59;0.40;;;0.30;;
46216;SDS011;47258;59.424;13.482;2022-07-23T12:53:22;0.32;;;0.32;;
46216;SDS011;47258;59.424;13.482;2022-07-23T12:55:56;2.25;;;0.52;;
46216;SDS011;47258;59.424;13.482;2022-07-23T12:58:38;0.43;;;0.30;;
46216;SDS011;47258;59.424;13.482;2022-07-23T13:01:07;2.63;;;0.57;;
46216;SDS011;47258;59.424;13.482;2022-07-23T13:03:35;0.28;;;0.28;;
46216;SDS011;47258;59.424;13.482;2022-07-23T13:06:05;0.30;;;0.30;;
46216;SDS011;47258;59.424;13.482;2022-07-23T13:08:33;0.20;;;0.20;;
46216;SDS011;47258;59.424;13.482;2022-07-23T13:11:03;0.47;;;0.30;;
46216;SDS011;47258;59.424;13.482;2022-07-23T13:15:58;0.98;;;0.22;;
46216;SDS011;47258;59.424;13.482;2022-07-23T13:18:25;0.75;;;0.17;;
46216;SDS011;47258;59.424;13.482;2022-07-23T13:20:53;0.30;;;0.30;;
46216;SDS011;47258;59.424;13.482;2022-07-23T13:23:21;0.20;;;0.20;;
46216;SDS011;47258;59.424;13.482;2022-07-23T13:25:49;0.13;;;0.13;;
46216;SDS011;47258;59.424;13.482;2022-07-23T13:28:18;0.35;;;0.35;;
46216;SDS011;47258;59.424;13.482;2022-07-23T13:30:46;0.40;;;0.40;;
46216;SDS011;47258;59.424;13.482;2022-07-23T13:33:14;0.40;;;0.20;;
46216;SDS011;47258;59.424;13.482;2022-07-23T13:35:42;0.47;;;0.32;;
46216;SDS011;47258;59.424;13.482;2022-07-23T13:38:09;0.75;;;0.57;;
46216;SDS011;47258;59.424;13.482;2022-07-23T13:40:37;0.10;;;0.10;;
46216;SDS011;47258;59.424;13.482;2022-07-23T13:43:07;0.65;;;0.50;;
46216;SDS011;47258;59.424;13.482;2022-07-23T13:45:36;0.47;;;0.47;;
46216;SDS011;47258;59.424;13.482;2022-07-23T13:48:04;1.00;;;0.30;;
46216;SDS011;47258;59.424;13.482;2022-07-23T13:50:32;0.30;;;0.30;;
46216;SDS011;47258;59.424;13.482;2022-07-23T13:53:00;0.40;;;0.40;;
46216;SDS011;47258;59.424;13.482;2022-07-23T13:55:28;0.20;;;0.20;;
46216;SDS011;47258;59.424;13.482;2022-07-23T13:57:55;0.20;;;0.20;;
46216;SDS011;47258;59.424;13.482;2022-07-23T14:00:22;0.20;;;0.20;;
46216;SDS011;47258;59.424;13.482;2022-07-23T14:02:51;2.92;;;0.30;;
46216;SDS011;47258;59.424;13.482;2022-07-23T14:05:18;0.20;;;0.20;;
46216;SDS011;47258;59.424;13.482;2022-07-23T14:07:45;0.40;;;0.40;;
46216;SDS011;47258;59.424;13.482;2022-07-23T14:10:15;0.20;;;0.20;;
46216;SDS011;47258;59.424;13.482;2022-07-23T14:12:42;0.30;;;0.30;;
46216;SDS011;47258;59.424;13.482;2022-07-23T14:15:10;0.40;;;0.40;;
46216;SDS011;47258;59.424;13.482;2022-07-23T14:17:37;2.72;;;0.30;;
46216;SDS011;47258;59.424;13.482;2022-07-23T14:20:07;1.38;;;0.30;;
46216;SDS011;47258;59.424;13.482;2022-07-23T14:22:35;0.32;;;0.30;;
46216;SDS011;47258;59.424;13.482;2022-07-23T14:25:03;0.20;;;0.20;;
46216;SDS011;47258;59.424;13.482;2022-07-23T14:27:31;0.52;;;0.50;;
46216;SDS011;47258;59.424;13.482;2022-07-23T14:29:58;2.85;;;0.43;;
46216;SDS011;47258;59.424;13.482;2022-07-23T14:32:25;0.30;;;0.30;;
46216;SDS011;47258;59.424;13.482;2022-07-23T14:34:52;0.22;;;0.22;;
46216;SDS011;47258;59.424;13.482;2022-07-23T14:37:21;0.93;;;0.40;;
46216;SDS011;47258;59.424;13.482;2022-07-23T14:39:48;1.30;;;0.30;;
46216;SDS011;47258;59.424;13.482;2022-07-23T14:42:15;0.20;;;0.20;;
46216;SDS011;47258;59.424;13.482;2022-07-23T14:44:42;0.40;;;0.40;;
46216;SDS011;47258;59.424;13.482;2022-07-23T14:47:09;0.57;;;0.30;;
46216;SDS011;47258;59.424;13.482;2022-07-23T14:49:36;0.20;;;0.20;;
46216;SDS011;47258;59.424;13.482;2022-07-23T14:52:03;0.28;;;0.28;;
46216;SDS011;47258;59.424;13.482;2022-07-23T14:54:32;0.38;;;0.38;;
46216;SDS011;47258;59.424;13.482;2022-07-23T14:57:00;0.20;;;0.20;;
46216;SDS011;47258;59.424;13.482;2022-07-23T14:59:28;0.30;;;0.30;;
46216;SDS011;47258;59.424;13.482;2022-07-23T15:01:56;0.30;;;0.30;;
46216;SDS011;47258;59.424;13.482;2022-07-23T15:04:23;2.05;;;0.43;;
46216;SDS011;47258;59.424;13.482;2022-07-23T15:06:50;1.85;;;0.98;;
46216;SDS011;47258;59.424;13.482;2022-07-23T15:09:18;1.08;;;1.05;;
46216;SDS011;47258;59.424;13.482;2022-07-23T15:11:46;1.08;;;1.08;;
46216;SDS011;47258;59.424;13.482;2022-07-23T15:14:13;3.25;;;1.42;;
46216;SDS011;47258;59.424;13.482;2022-07-23T15:16:41;1.30;;;1.30;;
46216;SDS011;47258;59.424;13.482;2022-07-23T15:19:08;1.15;;;0.95;;
46216;SDS011;47258;59.424;13.482;2022-07-23T15:21:35;1.73;;;1.63;;
46216;SDS011;47258;59.424;13.482;2022-07-23T15:24:03;1.38;;;1.35;;
46216;SDS011;47258;59.424;13.482;2022-07-23T15:26:30;1.55;;;1.30;;
46216;SDS011;47258;59.424;13.482;2022-07-23T15:28:58;1.70;;;1.60;;
46216;SDS011;47258;59.424;13.482;2022-07-23T15:31:27;1.85;;;1.40;;
46216;SDS011;47258;59.424;13.482;2022-07-23T15:33:54;3.03;;;1.45;;
46216;SDS011;47258;59.424;13.482;2022-07-23T15:36:21;1.17;;;1.10;;
46216;SDS011;47258;59.424;13.482;2022-07-23T15:38:48;1.10;;;1.10;;
46216;SDS011;47258;59.424;13.482;2022-07-23T15:41:16;3.63;;;1.77;;
46216;SDS011;47258;59.424;13.482;2022-07-23T15:43:42;1.27;;;1.20;;
46216;SDS011;47258;59.424;13.482;2022-07-23T15:46:11;1.05;;;1.05;;
46216;SDS011;47258;59.424;13.482;2022-07-23T15:48:38;1.65;;;1.55;;
46216;SDS011;47258;59.424;13.482;2022-07-23T15:51:05;2.20;;;2.03;;
46216;SDS011;47258;59.424;13.482;2022-07-23T15:53:32;1.80;;;1.27;;
46216;SDS011;47258;59.424;13.482;2022-07-23T15:55:59;2.03;;;1.92;;
46216;SDS011;47258;59.424;13.482;2022-07-23T15:58:27;1.60;;;1.50;;
46216;SDS011;47258;59.424;13.482;2022-07-23T16:00:54;1.98;;;1.80;;
46216;SDS011;47258;59.424;13.482;2022-07-23T16:03:23;3.65;;;1.77;;
46216;SDS011;47258;59.424;13.482;2022-07-23T16:05:50;2.38;;;1.92;;
46216;SDS011;47258;59.424;13.482;2022-07-23T16:08:17;4.85;;;1.88;;
46216;SDS011;47258;59.424;13.482;2022-07-23T16:10:45;2.72;;;1.80;;
46216;SDS011;47258;59.424;13.482;2022-07-23T16:13:12;1.98;;;1.88;;
46216;SDS011;47258;59.424;13.482;2022-07-23T16:15:39;2.70;;;2.45;;
46216;SDS011;47258;59.424;13.482;2022-07-23T16:18:07;1.52;;;1.42;;
46216;SDS011;47258;59.424;13.482;2022-07-23T16:20:37;1.97;;;1.27;;
46216;SDS011;47258;59.424;13.482;2022-07-23T16:23:04;1.52;;;1.42;;
46216;SDS011;47258;59.424;13.482;2022-07-23T16:25:32;2.25;;;2.15;;
46216;SDS011;47258;59.424;13.482;2022-07-23T16:27:59;5.78;;;5.28;;
46216;SDS011;47258;59.424;13.482;2022-07-23T16:30:26;12.27;;;11.10;;
46216;SDS011;47258;59.424;13.482;2022-07-23T16:32:53;7.35;;;4.85;;
46216;SDS011;47258;59.424;13.482;2022-07-23T16:35:20;2.05;;;1.95;;
46216;SDS011;47258;59.424;13.482;2022-07-23T16:37:49;1.65;;;1.40;;
46216;SDS011;47258;59.424;13.482;2022-07-23T16:40:18;2.33;;;2.13;;
46216;SDS011;47258;59.424;13.482;2022-07-23T16:42:45;3.40;;;2.40;;
46216;SDS011;47258;59.424;13.482;2022-07-23T16:45:12;2.88;;;1.88;;
46216;SDS011;47258;59.424;13.482;2022-07-23T16:47:40;1.35;;;1.25;;
46216;SDS011;47258;59.424;13.482;2022-07-23T16:50:07;2.33;;;2.05;;
46216;SDS011;47258;59.424;13.482;2022-07-23T16:52:34;1.83;;;1.73;;
46216;SDS011;47258;59.424;13.482;2022-07-23T16:55:03;2.38;;;2.17;;
46216;SDS011;47258;59.424;13.482;2022-07-23T16:57:31;2.38;;;1.98;;
46216;SDS011;47258;59.424;13.482;2022-07-23T16:59:58;1.25;;;1.20;;
46216;SDS011;47258;59.424;13.482;2022-07-23T17:02:25;1.92;;;1.48;;
46216;SDS011;47258;59.424;13.482;2022-07-23T17:04:52;1.92;;;1.70;;
46216;SDS011;47258;59.424;13.482;2022-07-23T17:07:19;2.13;;;1.17;;
46216;SDS011;47258;59.424;13.482;2022-07-23T17:09:46;2.53;;;1.00;;
46216;SDS011;47258;59.424;13.482;2022-07-23T17:12:15;1.73;;;0.93;;
46216;SDS011;47258;59.424;13.482;2022-07-23T17:14:41;0.65;;;0.65;;
46216;SDS011;47258;59.424;13.482;2022-07-23T17:17:08;0.95;;;0.95;;
46216;SDS011;47258;59.424;13.482;2022-07-23T17:19:37;1.65;;;0.75;;
46216;SDS011;47258;59.424;13.482;2022-07-23T17:22:04;0.95;;;0.95;;
46216;SDS011;47258;59.424;13.482;2022-07-23T17:24:31;0.82;;;0.75;;
46216;SDS011;47258;59.424;13.482;2022-07-23T17:26:59;1.27;;;1.17;;
46216;SDS011;47258;59.424;13.482;2022-07-23T17:29:27;2.88;;;1.30;;
46216;SDS011;47258;59.424;13.482;2022-07-23T17:31:54;3.67;;;1.33;;
46216;SDS011;47258;59.424;13.482;2022-07-23T17:34:21;1.27;;;1.20;;
46216;SDS011;47258;59.424;13.482;2022-07-23T17:36:48;1.60;;;1.50;;
46216;SDS011;47258;59.424;13.482;2022-07-23T17:39:16;0.65;;;0.65;;
46216;SDS011;47258;59.424;13.482;2022-07-23T17:41:43;0.60;;;0.60;;
46216;SDS011;47258;59.424;13.482;2022-07-23T17:44:13;3.78;;;0.60;;
46216;SDS011;47258;59.424;13.482;2022-07-23T17:46:42;0.60;;;0.60;;
46216;SDS011;47258;59.424;13.482;2022-07-23T17:49:09;0.70;;;0.70;;
46216;SDS011;47258;59.424;13.482;2022-07-23T17:51:36;1.77;;;0.80;;
46216;SDS011;47258;59.424;13.482;2022-07-23T17:54:03;4.10;;;2.25;;
46216;SDS011;47258;59.424;13.482;2022-07-23T17:56:31;3.50;;;3.25;;
46216;SDS011;47258;59.424;13.482;2022-07-23T17:58:59;3.88;;;3.55;;
46216;SDS011;47258;59.424;13.482;2022-07-23T18:01:26;4.28;;;3.38;;
46216;SDS011;47258;59.424;13.482;2022-07-23T18:03:55;3.08;;;2.83;;
46216;SDS011;47258;59.424;13.482;2022-07-23T18:06:22;3.65;;;1.73;;
46216;SDS011;47258;59.424;13.482;2022-07-23T18:08:49;2.22;;;1.80;;
46216;SDS011;47258;59.424;13.482;2022-07-23T18:11:16;3.35;;;1.77;;
46216;SDS011;47258;59.424;13.482;2022-07-23T18:13:44;3.58;;;2.45;;
46216;SDS011;47258;59.424;13.482;2022-07-23T18:16:11;3.00;;;2.80;;
46216;SDS011;47258;59.424;13.482;2022-07-23T18:18:38;3.03;;;2.83;;
46216;SDS011;47258;59.424;13.482;2022-07-23T18:21:07;3.65;;;3.35;;
46216;SDS011;47258;59.424;13.482;2022-07-23T18:23:34;5.28;;;3.58;;
46216;SDS011;47258;59.424;13.482;2022-07-23T18:26:01;3.28;;;2.97;;
46216;SDS011;47258;59.424;13.482;2022-07-23T18:28:28;4.03;;;3.63;;
46216;SDS011;47258;59.424;13.482;2022-07-23T18:30:55;4.05;;;3.60;;
46216;SDS011;47258;59.424;13.482;2022-07-23T18:33:23;5.20;;;3.45;;
46216;SDS011;47258;59.424;13.482;2022-07-23T18:35:50;4.68;;;4.28;;
46216;SDS011;47258;59.424;13.482;2022-07-23T18:38:19;5.50;;;3.75;;
46216;SDS011;47258;59.424;13.482;2022-07-23T18:40:46;6.00;;;3.65;;
46216;SDS011;47258;59.424;13.482;2022-07-23T18:43:13;4.07;;;3.67;;
46216;SDS011;47258;59.424;13.482;2022-07-23T18:45:40;3.92;;;3.53;;
46216;SDS011;47258;59.424;13.482;2022-07-23T18:48:07;2.92;;;2.72;;
46216;SDS011;47258;59.424;13.482;2022-07-23T18:50:35;3.78;;;3.28;;
46216;SDS011;47258;59.424;13.482;2022-07-23T18:53:02;2.85;;;1.95;;
46216;SDS011;47258;59.424;13.482;2022-07-23T18:55:31;2.55;;;1.83;;
46216;SDS011;47258;59.424;13.482;2022-07-23T18:57:58;2.42;;;1.88;;
46216;SDS011;47258;59.424;13.482;2022-07-23T19:00:28;3.10;;;1.27;;
46216;SDS011;47258;59.424;13.482;2022-07-23T19:02:55;3.05;;;1.05;;
46216;SDS011;47258;59.424;13.482;2022-07-23T19:05:23;1.33;;;1.30;;
46216;SDS011;47258;59.424;13.482;2022-07-23T19:07:50;1.10;;;0.98;;
46216;SDS011;47258;59.424;13.482;2022-07-23T19:10:17;0.93;;;0.93;;
46216;SDS011;47258;59.424;13.482;2022-07-23T19:12:46;0.90;;;0.90;;
46216;SDS011;47258;59.424;13.482;2022-07-23T19:15:14;1.05;;;1.05;;
46216;SDS011;47258;59.424;13.482;2022-07-23T19:17:42;1.05;;;0.77;;
46216;SDS011;47258;59.424;13.482;2022-07-23T19:20:10;1.17;;;1.08;;
46216;SDS011;47258;59.424;13.482;2022-07-23T19:22:37;0.90;;;0.90;;
46216;SDS011;47258;59.424;13.482;2022-07-23T19:25:04;1.50;;;1.30;;
46216;SDS011;47258;59.424;13.482;2022-07-23T19:27:32;1.45;;;1.35;;
46216;SDS011;47258;59.424;13.482;2022-07-23T19:30:01;0.95;;;0.88;;
46216;SDS011;47258;59.424;13.482;2022-07-23T19:32:29;0.80;;;0.80;;
46216;SDS011;47258;59.424;13.482;2022-07-23T19:34:56;0.88;;;0.88;;
46216;SDS011;47258;59.424;13.482;2022-07-23T19:37:23;0.50;;;0.50;;
46216;SDS011;47258;59.424;13.482;2022-07-23T19:39:50;0.63;;;0.63;;
46216;SDS011;47258;59.424;13.482;2022-07-23T19:42:17;0.50;;;0.50;;
46216;SDS011;47258;59.424;13.482;2022-07-23T19:44:44;0.52;;;0.50;;
46216;SDS011;47258;59.424;13.482;2022-07-23T19:47:13;1.15;;;1.05;;
46216;SDS011;47258;59.424;13.482;2022-07-23T19:49:40;0.50;;;0.50;;
46216;SDS011;47258;59.424;13.482;2022-07-23T19:52:07;0.50;;;0.50;;
46216;SDS011;47258;59.424;13.482;2022-07-23T19:54:35;0.85;;;0.50;;
46216;SDS011;47258;59.424;13.482;2022-07-23T19:57:02;0.65;;;0.65;;
46216;SDS011;47258;59.424;13.482;2022-07-23T19:59:29;1.40;;;0.50;;
46216;SDS011;47258;59.424;13.482;2022-07-23T20:01:57;0.65;;;0.60;;
46216;SDS011;47258;59.424;13.482;2022-07-23T20:04:25;0.60;;;0.60;;
46216;SDS011;47258;59.424;13.482;2022-07-23T20:06:52;0.93;;;0.93;;
46216;SDS011;47258;59.424;13.482;2022-07-23T20:09:19;1.27;;;0.63;;
46216;SDS011;47258;59.424;13.482;2022-07-23T20:11:47;4.90;;;0.63;;
46216;SDS011;47258;59.424;13.482;2022-07-23T20:14:14;0.50;;;0.50;;
46216;SDS011;47258;59.424;13.482;2022-07-23T20:16:41;1.15;;;0.88;;
46216;SDS011;47258;59.424;13.482;2022-07-23T20:19:08;0.73;;;0.60;;
46216;SDS011;47258;59.424;13.482;2022-07-23T20:21:36;0.50;;;0.50;;
46216;SDS011;47258;59.424;13.482;2022-07-23T20:24:09;0.50;;;0.50;;
46216;SDS011;47258;59.424;13.482;2022-07-23T20:26:37;0.60;;;0.60;;
46216;SDS011;47258;59.424;13.482;2022-07-23T20:29:04;1.10;;;0.60;;
46216;SDS011;47258;59.424;13.482;2022-07-23T20:31:31;1.17;;;1.08;;
46216;SDS011;47258;59.424;13.482;2022-07-23T20:33:58;0.40;;;0.40;;
46216;SDS011;47258;59.424;13.482;2022-07-23T20:36:25;0.47;;;0.47;;
46216;SDS011;47258;59.424;13.482;2022-07-23T20:38:54;0.45;;;0.45;;
46216;SDS011;47258;59.424;13.482;2022-07-23T20:41:21;0.70;;;0.70;;
46216;SDS011;47258;59.424;13.482;2022-07-23T20:43:48;2.67;;;0.63;;
46216;SDS011;47258;59.424;13.482;2022-07-23T20:46:15;0.52;;;0.52;;
46216;SDS011;47258;59.424;13.482;2022-07-23T20:48:43;0.50;;;0.50;;
46216;SDS011;47258;59.424;13.482;2022-07-23T20:51:10;0.60;;;0.60;;
46216;SDS011;47258;59.424;13.482;2022-07-23T20:53:37;0.30;;;0.30;;
46216;SDS011;47258;59.424;13.482;2022-07-23T20:56:06;0.50;;;0.47;;
46216;SDS011;47258;59.424;13.482;2022-07-23T20:58:34;0.43;;;0.43;;
46216;SDS011;47258;59.424;13.482;2022-07-23T21:01:01;0.70;;;0.60;;
46216;SDS011;47258;59.424;13.482;2022-07-23T21:03:28;0.40;;;0.40;;
46216;SDS011;47258;59.424;13.482;2022-07-23T21:05:55;1.27;;;0.80;;
46216;SDS011;47258;59.424;13.482;2022-07-23T21:08:22;0.80;;;0.80;;
46216;SDS011;47258;59.424;13.482;2022-07-23T21:10:49;0.57;;;0.57;;
46216;SDS011;47258;59.424;13.482;2022-07-23T21:13:17;0.63;;;0.63;;
46216;SDS011;47258;59.424;13.482;2022-07-23T21:15:44;1.75;;;1.00;;
46216;SDS011;47258;59.424;13.482;2022-07-23T21:18:11;1.50;;;0.70;;
46216;SDS011;47258;59.424;13.482;2022-07-23T21:20:38;1.65;;;0.73;;
46216;SDS011;47258;59.424;13.482;2022-07-23T21:23:28;1.85;;;0.80;;
46216;SDS011;47258;59.424;13.482;2022-07-23T21:25:55;2.78;;;0.77;;
46216;SDS011;47258;59.424;13.482;2022-07-23T21:28:24;1.92;;;0.85;;
46216;SDS011;47258;59.424;13.482;2022-07-23T21:30:51;0.80;;;0.80;;
46216;SDS011;47258;59.424;13.482;2022-07-23T21:33:18;1.95;;;0.98;;
46216;SDS011;47258;59.424;13.482;2022-07-23T21:35:45;2.08;;;0.70;;
46216;SDS011;47258;59.424;13.482;2022-07-23T21:38:12;1.00;;;1.00;;
46216;SDS011;47258;59.424;13.482;2022-07-23T21:40:39;1.70;;;1.15;;
46216;SDS011;47258;59.424;13.482;2022-07-23T21:43:06;5.43;;;1.23;;
46216;SDS011;47258;59.424;13.482;2022-07-23T21:45:34;0.90;;;0.90;;
46216;SDS011;47258;59.424;13.482;2022-07-23T21:48:01;2.35;;;0.90;;
46216;SDS011;47258;59.424;13.482;2022-07-23T21:50:28;0.93;;;0.93;;
46216;SDS011;47258;59.424;13.482;2022-07-23T21:52:55;0.70;;;0.70;;
46216;SDS011;47258;59.424;13.482;2022-07-23T21:55:22;0.60;;;0.60;;
46216;SDS011;47258;59.424;13.482;2022-07-23T21:57:50;2.40;;;0.90;;
46216;SDS011;47258;59.424;13.482;2022-07-23T22:00:18;1.17;;;1.15;;
46216;SDS011;47258;59.424;13.482;2022-07-23T22:02:49;3.63;;;1.05;;
46216;SDS011;47258;59.424;13.482;2022-07-23T22:05:15;0.57;;;0.57;;
46216;SDS011;47258;59.424;13.482;2022-07-23T22:07:42;1.30;;;0.70;;
46216;SDS011;47258;59.424;13.482;2022-07-23T22:10:10;2.55;;;0.60;;